Terminal Aerodrome Forecast
Issued by NWS

Home | Current Version | Previous Version | Text Only | Print | Product List | Glossary On
Versions: 1 2 3 4 5 6 7 8 9 10 11 12 13 14 15 16 17 18 19 20 21 22 23 24 25 26 27
000
FTUS41 KBUF 041510 AAC
TAFJHW
TAF AMD
KJHW 041510Z 0415/0512 21014G22KT P6SM SCT050 SCT250
     FM042100 24012G18KT 6SM -SHRA VCTS BKN050CB
     FM050000 23006KT 6SM -SHRA BKN070
     FM050600 27004KT 6SM -SHRA OVC007
      AMD LTD TO CLD VIS AND WIND=

USA.gov is the U.S. government's official web portal to all federal, state and local government web resources and services.